createdAt,value
2023-03-23T15:59:44.522Z,14.72
2023-03-23T16:02:23.813Z,14.43
2023-03-23T16:04:53.208Z,14.45
2023-03-23T16:07:24.791Z,14.21
2023-03-23T16:09:53.359Z,14.13
2023-03-23T16:12:22.045Z,14.26
2023-03-23T16:14:50.636Z,14.42
2023-03-23T16:17:21.741Z,14.54
2023-03-23T16:19:50.647Z,14.82
2023-03-23T16:22:19.414Z,14.50
2023-03-23T16:24:48.307Z,14.56
2023-03-23T16:27:17.489Z,14.13
2023-03-23T16:30:02.134Z,14.13
2023-03-23T16:35:01.623Z,13.97
2023-03-23T16:37:33.438Z,14.26
2023-03-23T16:40:02.161Z,13.90
2023-03-23T16:42:30.805Z,13.99
2023-03-23T16:44:59.374Z,14.56
2023-03-23T16:47:27.999Z,14.35
2023-03-23T16:49:57.964Z,14.10
2023-03-23T16:52:27.252Z,14.22
2023-03-23T16:54:55.913Z,14.52
2023-03-23T16:57:24.479Z,14.42
2023-03-23T16:59:53.060Z,14.15
2023-03-23T17:02:21.997Z,14.28
2023-03-23T17:04:50.793Z,14.34
2023-03-23T17:07:20.880Z,14.34
2023-03-23T17:09:49.609Z,14.15
2023-03-23T17:12:18.578Z,14.24
2023-03-23T17:14:47.169Z,14.33
2023-03-23T17:17:15.891Z,14.32
2023-03-23T17:19:44.449Z,14.49
2023-03-23T17:22:13.148Z,14.70
2023-03-23T17:24:43.232Z,14.70
2023-03-23T17:27:12.546Z,14.44
2023-03-23T17:29:41.194Z,14.48
2023-03-23T17:32:09.705Z,14.65
2023-03-23T17:34:38.846Z,14.51
2023-03-23T17:37:07.479Z,14.24
2023-03-23T17:39:43.344Z,14.16
2023-03-23T17:42:14.372Z,14.11
2023-03-23T17:44:43.010Z,14.00
2023-03-23T17:47:12.537Z,14.00
2023-03-23T17:49:41.314Z,14.13
2023-03-23T17:52:09.875Z,13.93
2023-03-23T17:54:38.514Z,14.19
2023-03-23T17:57:07.183Z,13.98
2023-03-23T17:59:37.319Z,13.90
2023-03-23T18:02:06.214Z,14.11
2023-03-23T18:04:35.504Z,13.87
2023-03-23T18:07:04.059Z,14.08
2023-03-23T18:09:32.622Z,14.05
2023-03-23T18:12:01.513Z,14.24
2023-03-23T18:14:30.276Z,14.70
2023-03-23T18:17:00.192Z,14.72
2023-03-23T18:19:29.183Z,14.90
2023-03-23T18:21:57.773Z,14.85
2023-03-23T18:24:26.512Z,14.60
2023-03-23T18:26:56.890Z,14.45
2023-03-23T18:29:25.476Z,13.91
2023-03-23T18:31:54.120Z,14.29
2023-03-23T18:34:24.356Z,13.73
2023-03-23T18:36:52.957Z,13.86
2023-03-23T18:39:21.782Z,13.72
2023-03-23T18:41:50.521Z,13.89
2023-03-23T18:44:19.123Z,14.11
2023-03-23T18:46:47.741Z,13.91
2023-03-23T18:49:16.293Z,13.99
2023-03-23T18:51:46.213Z,14.11
2023-03-23T18:56:45.295Z,13.77
2023-03-23T18:59:13.980Z,13.88
2023-03-23T19:01:42.643Z,13.66
2023-03-23T19:04:13.476Z,13.64
2023-03-23T19:06:42.381Z,13.60
2023-03-23T19:09:12.301Z,13.90
2023-03-23T19:11:40.847Z,13.52
2023-03-23T19:14:09.432Z,13.52
2023-03-23T19:16:38.065Z,13.74
2023-03-23T19:19:09.013Z,13.53
2023-03-23T19:21:39.621Z,13.97
2023-03-23T19:24:11.331Z,13.70
2023-03-23T19:26:42.107Z,13.47
2023-03-23T19:31:46.577Z,13.59
2023-03-23T19:34:16.732Z,13.44
2023-03-23T19:36:53.801Z,13.40
2023-03-23T19:39:26.161Z,13.21
2023-03-23T19:41:56.263Z,13.39
2023-03-23T19:44:25.418Z,13.15
2023-03-23T19:46:54.537Z,13.13
2023-03-23T19:49:23.107Z,13.40
2023-03-23T19:51:52.544Z,13.32
2023-03-23T19:54:39.542Z,13.18
2023-03-23T19:57:09.997Z,13.37
2023-03-23T19:59:39.439Z,13.20
2023-03-23T20:02:08.780Z,13.26
2023-03-23T20:04:37.666Z,13.60
2023-03-23T20:07:07.772Z,13.15
2023-03-23T20:09:38.671Z,13.40
2023-03-23T20:12:07.846Z,13.74
2023-03-23T20:14:37.496Z,13.50
2023-03-23T20:17:09.877Z,13.66
2023-03-23T20:19:39.771Z,13.54
2023-03-23T20:22:08.947Z,13.41
2023-03-23T20:24:38.887Z,13.41
2023-03-23T20:27:07.986Z,13.47
2023-03-23T20:29:36.744Z,13.37
2023-03-23T20:32:06.946Z,13.38
2023-03-23T20:34:36.228Z,13.49
2023-03-23T20:37:05.164Z,13.65
2023-03-23T20:39:34.487Z,13.65
2023-03-23T20:42:06.502Z,13.49
2023-03-23T20:44:36.170Z,13.48
2023-03-23T20:47:06.075Z,13.73
2023-03-23T20:49:37.221Z,13.57
2023-03-23T20:52:08.247Z,13.70
2023-03-23T20:54:38.003Z,13.66
2023-03-23T20:57:08.489Z,13.60
2023-03-23T20:59:37.374Z,13.70
2023-03-23T21:02:06.261Z,13.57
2023-03-23T21:04:37.223Z,13.41
2023-03-23T21:07:06.296Z,13.51
2023-03-23T21:09:34.844Z,13.13
2023-03-23T21:12:06.213Z,13.17
2023-03-23T21:14:36.872Z,13.15
2023-03-23T21:17:06.585Z,12.98
2023-03-23T21:19:35.979Z,13.15
2023-03-23T21:22:05.268Z,13.09
2023-03-23T21:24:37.409Z,13.32
2023-03-23T21:27:06.445Z,12.96
2023-03-23T21:29:36.515Z,12.90
2023-03-23T21:32:08.588Z,12.50
2023-03-23T21:34:38.451Z,12.65
2023-03-23T21:37:07.178Z,12.52
2023-03-23T21:39:35.989Z,12.72
2023-03-23T21:42:06.989Z,12.78
2023-03-23T21:44:39.065Z,12.66
2023-03-23T21:47:08.208Z,12.88
2023-03-23T21:49:40.739Z,12.67
2023-03-23T21:52:09.971Z,13.00
2023-03-23T21:54:38.503Z,13.18
2023-03-23T21:57:07.108Z,13.13
2023-03-23T21:59:37.078Z,13.03
2023-03-23T22:02:05.693Z,12.77
2023-03-23T22:04:34.307Z,12.59
2023-03-23T22:07:02.885Z,12.46
2023-03-23T22:09:31.964Z,12.67
2023-03-23T22:12:00.537Z,13.30
2023-03-23T22:14:29.177Z,13.18
2023-03-23T22:17:00.498Z,13.07
2023-03-23T22:19:29.062Z,13.16
2023-03-23T22:21:57.607Z,12.94
2023-03-23T22:24:26.439Z,12.93
2023-03-23T22:26:55.316Z,12.70
2023-03-23T22:29:24.015Z,12.85
2023-03-23T22:31:52.616Z,12.93
2023-03-23T22:34:22.599Z,13.15
2023-03-23T22:36:51.607Z,12.76
2023-03-23T22:39:20.185Z,13.15
2023-03-23T22:41:48.783Z,13.19
2023-03-23T22:44:19.481Z,12.79
2023-03-23T22:46:48.160Z,12.91
2023-03-23T22:49:16.738Z,12.34
2023-03-23T22:51:47.133Z,12.65
2023-03-23T22:54:15.676Z,12.44
2023-03-23T22:56:44.345Z,12.34
2023-03-23T22:59:13.650Z,12.32
2023-03-23T23:01:42.247Z,12.35
2023-03-23T23:04:11.076Z,12.45
2023-03-23T23:06:39.879Z,12.24
2023-03-23T23:09:10.470Z,11.99
2023-03-23T23:11:39.355Z,12.83
2023-03-23T23:14:07.925Z,12.64
2023-03-23T23:16:36.546Z,12.77
2023-03-23T23:19:05.754Z,12.34
2023-03-23T23:21:34.469Z,12.25
2023-03-23T23:24:03.868Z,12.55
2023-03-23T23:26:34.027Z,12.38
2023-03-23T23:29:03.058Z,12.55
2023-03-23T23:31:34.384Z,12.76
2023-03-23T23:34:04.516Z,12.88
2023-03-23T23:36:33.659Z,12.34
2023-03-23T23:39:05.889Z,12.47
2023-03-23T23:41:36.160Z,12.11
2023-03-23T23:44:05.658Z,12.10
2023-03-23T23:46:34.555Z,12.68
2023-03-23T23:49:03.311Z,12.71
2023-03-23T23:51:33.631Z,13.41
2023-03-23T23:54:02.590Z,13.03
2023-03-23T23:56:31.271Z,12.85
2023-03-23T23:59:01.231Z,12.49
